Back to top

Jackson, WY weather

Jackson Hole Airport (AWOS), Jackson, WY: 12/12/2019 23:56
Visibility6 statute mileslots of cloudstree obscured by hazy, misty vapor
View 7-Day Forecast
Area Summary
Sky/CloudsFew at 2300ft, Scattered at 3000ft, Solid Overcast at 4100ft
Weather [last 24 hours]Mist [snow began 10:06 ]
Pressure29.92 in.Hg (1013 hPa)
Dew Point28 °F (-2.2 °C)
Relative Humidity88.9 %
Last 24-Hour Precip.0.13 in. (3.302 mm)
Reading TimePrecipitation
6-hr ending 12/12@16:560.05 in. (1.27 mm)
6-hr ending 12/12@10:560.09 in. (2.286 mm)
6-hr ending 12/12@04:560.04 in. (1.016 mm)
24-hr ending 12/12@04:560.06 in. (1.524 mm)
Temperature30.9 °F (-0.6 °C)red thermometer
Wind Chill18.7 °F (-7.41 °C)
Reading TimeMinimum to Maximum Temperature
6-hr ending 12/12@22:5630.9 °F to 34 °F (-0.6 °C to 1.1 °C)
6-hr ending 12/12@16:5632 °F to 34 °F (0 °C to 1.1 °C)
6-hr ending 12/12@10:5630 °F to 32 °F (-1.1 °C to 0 °C)
6-hr ending 12/12@04:5628 °F to 30 °F (-2.2 °C to -1.1 °C)
24-hr ending 12/12@23:5628 °F to 34 °F (-2.2 °C to 1.1 °C)
Wind19.6 MPH (17 KT) green arrow pointing 180 degrees
Wind FromSouth (180 Degrees)
Twilight Begins07:14Sunshine Yesterday
Sunrise07:47N/A
Sunset16:48
Twilight Ends17:21
METARKJAC 130656Z AUTO 18017KT 6SM BR FEW023 SCT030 OVC041 M01/M02 A2992 RMK AO2 SLP158 T10061022 400111022
Tags: